Terminal Aerodrome Forecast
Issued by NWS

Home | Current Version | Previous Version | Text Only | Print | Product List | Glossary On
Versions: 1 2 3 4 5 6 7 8 9 10 11 12 13 14 15 16 17 18 19 20
988
FTUS44 KBMX 200520
TAFTCL
TAF
KTCL 200520Z 2006/2106 04003KT P6SM FEW250
     FM201400 11003KT P6SM FEW250
     FM201900 15005KT P6SM SCT250
     FM210000 12003KT P6SM SCT250=

USA.gov is the U.S. government's official web portal to all federal, state and local government web resources and services.